createdAt,value
2023-03-13T00:02:16.672Z,74.44
2023-03-13T00:05:03.944Z,74.74
2023-03-13T00:07:50.723Z,74.41
2023-03-13T00:10:38.796Z,74.64
2023-03-13T00:13:25.067Z,74.80
2023-03-13T00:16:16.240Z,74.92
2023-03-13T00:19:06.975Z,75.31
2023-03-13T00:21:53.679Z,75.34
2023-03-13T00:24:40.057Z,75.18
2023-03-13T00:27:26.383Z,75.44
2023-03-13T00:30:13.200Z,75.41
2023-03-13T00:33:00.109Z,75.07
2023-03-13T00:35:46.760Z,75.12
2023-03-13T00:38:34.021Z,74.70
2023-03-13T00:41:23.149Z,74.96
2023-03-13T00:44:12.438Z,74.84
2023-03-13T00:46:58.598Z,74.69
2023-03-13T00:49:44.950Z,74.50
2023-03-13T00:52:32.636Z,74.45
2023-03-13T00:55:19.188Z,74.60
2023-03-13T00:58:05.858Z,74.50
2023-03-13T01:00:53.163Z,74.31
2023-03-13T01:03:41.567Z,74.46
2023-03-13T01:06:30.728Z,74.32
2023-03-13T01:09:17.520Z,74.45
2023-03-13T01:12:04.347Z,74.52
2023-03-13T01:14:51.220Z,74.41
2023-03-13T01:17:37.973Z,74.27
2023-03-13T01:20:24.862Z,74.23
2023-03-13T01:23:11.440Z,74.53
2023-03-13T01:25:58.382Z,74.09
2023-03-13T01:28:45.425Z,74.14
2023-03-13T01:31:34.972Z,74.45
2023-03-13T01:34:21.415Z,74.07
2023-03-13T01:37:07.815Z,74.21
2023-03-13T01:39:54.229Z,74.14
2023-03-13T01:42:57.494Z,74.41
2023-03-13T01:46:01.597Z,74.40
2023-03-13T01:48:55.694Z,74.55
2023-03-13T01:51:58.557Z,74.80
2023-03-13T01:54:51.328Z,74.55
2023-03-13T01:57:42.872Z,74.53
2023-03-13T02:00:35.922Z,74.53
2023-03-13T02:03:22.803Z,74.36
2023-03-13T02:06:10.562Z,74.68
2023-03-13T02:09:02.223Z,74.57
2023-03-13T02:12:04.089Z,74.62
2023-03-13T02:14:51.751Z,75.06
2023-03-13T02:17:40.821Z,74.70
2023-03-13T02:20:27.817Z,74.91
2023-03-13T02:23:22.222Z,75.34
2023-03-13T02:26:09.122Z,75.37
2023-03-13T02:28:55.828Z,75.49
2023-03-13T02:31:42.527Z,75.60
2023-03-13T02:34:33.878Z,75.55
2023-03-13T02:37:21.244Z,75.33
2023-03-13T02:40:12.675Z,75.52
2023-03-13T02:43:02.793Z,75.86
2023-03-13T02:46:04.629Z,75.25
2023-03-13T02:48:56.711Z,74.85
2023-03-13T02:51:46.218Z,74.75
2023-03-13T02:54:37.934Z,74.49
2023-03-13T02:57:24.326Z,74.34
2023-03-13T03:00:17.099Z,74.36
2023-03-13T03:03:03.370Z,74.17
2023-03-13T03:05:50.207Z,74.23
2023-03-13T03:08:36.965Z,74.48
2023-03-13T03:11:24.072Z,74.37
2023-03-13T03:14:12.545Z,74.77
2023-03-13T03:16:59.523Z,74.84
2023-03-13T03:19:46.620Z,75.18
2023-03-13T03:22:33.044Z,75.04
2023-03-13T03:25:19.587Z,75.22
2023-03-13T03:28:06.406Z,74.99
2023-03-13T03:30:54.320Z,75.63
2023-03-13T03:33:42.198Z,75.90
2023-03-13T03:36:29.229Z,75.72
2023-03-13T03:39:15.776Z,75.98
2023-03-13T03:42:02.165Z,75.91
2023-03-13T03:44:48.974Z,75.74
2023-03-13T03:47:35.546Z,75.97
2023-03-13T03:50:22.116Z,76.44
2023-03-13T03:53:09.333Z,76.35
2023-03-13T03:55:55.914Z,76.55
2023-03-13T03:58:42.414Z,76.68
2023-03-13T04:01:28.730Z,76.43
2023-03-13T04:04:15.011Z,76.56
2023-03-13T04:07:01.532Z,76.40
2023-03-13T04:09:48.155Z,76.57
2023-03-13T04:12:34.978Z,76.75
2023-03-13T04:15:21.405Z,76.89
2023-03-13T04:18:08.106Z,77.39
2023-03-13T04:21:06.032Z,77.10
2023-03-13T04:23:52.684Z,77.00
2023-03-13T04:26:39.159Z,77.38
2023-03-13T04:29:25.987Z,77.98
2023-03-13T04:32:12.582Z,78.17
2023-03-13T04:34:59.256Z,78.74
2023-03-13T04:37:45.912Z,79.28
2023-03-13T04:40:33.298Z,79.81
2023-03-13T04:43:20.037Z,80.49
2023-03-13T04:46:06.666Z,80.50
2023-03-13T04:48:53.167Z,80.83
2023-03-13T04:51:39.412Z,80.91
2023-03-13T04:54:25.800Z,81.28
2023-03-13T04:57:12.329Z,81.71
2023-03-13T04:59:58.914Z,82.18
2023-03-13T05:02:46.979Z,82.56
2023-03-13T05:05:36.519Z,83.05
2023-03-13T05:08:23.054Z,83.90
2023-03-13T05:11:11.687Z,83.84
2023-03-13T05:13:58.359Z,84.75
2023-03-13T05:16:44.608Z,84.18
2023-03-13T05:19:31.089Z,84.21
2023-03-13T05:22:17.986Z,84.71
2023-03-13T05:25:05.856Z,85.10
2023-03-13T05:27:52.411Z,85.55
2023-03-13T05:30:38.899Z,86.00
2023-03-13T05:33:28.473Z,86.12
2023-03-13T05:36:15.066Z,86.92
2023-03-13T05:39:01.964Z,86.72
2023-03-13T05:41:49.084Z,87.10
2023-03-13T05:44:36.993Z,86.46
2023-03-13T05:47:23.474Z,85.41
2023-03-13T05:50:10.673Z,85.78
2023-03-13T05:52:57.335Z,85.97
2023-03-13T05:55:44.027Z,85.48
2023-03-13T05:58:30.470Z,86.30
2023-03-13T06:01:17.076Z,86.48
2023-03-13T06:04:03.786Z,87.57
2023-03-13T06:07:08.107Z,87.79
2023-03-13T06:09:54.403Z,88.98
2023-03-13T06:12:41.116Z,89.72
2023-03-13T06:15:27.777Z,90.38
2023-03-13T06:18:14.470Z,90.70
2023-03-13T06:21:02.185Z,91.06
2023-03-13T06:23:48.830Z,91.35
2023-03-13T06:26:35.535Z,91.54
2023-03-13T06:29:24.080Z,91.79
2023-03-13T06:32:10.979Z,91.92
2023-03-13T06:34:58.004Z,92.26
2023-03-13T06:37:44.756Z,92.56
2023-03-13T06:40:31.138Z,93.07
2023-03-13T06:43:17.727Z,94.00
2023-03-13T06:46:05.448Z,94.80
2023-03-13T06:48:52.360Z,95.61
2023-03-13T06:51:38.843Z,96.24
2023-03-13T06:54:25.533Z,96.42
2023-03-13T06:57:12.072Z,96.52
2023-03-13T06:59:58.609Z,96.47
2023-03-13T07:02:45.266Z,96.79
2023-03-13T07:05:32.461Z,96.79
2023-03-13T07:08:18.736Z,96.94
2023-03-13T07:11:08.807Z,97.29
2023-03-13T07:14:06.527Z,97.60
2023-03-13T07:17:01.778Z,97.65
2023-03-13T07:19:48.506Z,97.60
2023-03-13T07:22:35.260Z,97.64
2023-03-13T07:25:21.885Z,97.43
2023-03-13T07:28:08.732Z,96.79
2023-03-13T07:30:55.317Z,96.96
2023-03-13T07:33:41.827Z,96.56
2023-03-13T07:36:28.697Z,96.45
2023-03-13T07:39:15.248Z,96.31
2023-03-13T07:42:01.722Z,95.59
2023-03-13T07:44:48.348Z,95.30
2023-03-13T07:47:35.410Z,95.01
2023-03-13T07:50:25.411Z,94.62
2023-03-13T07:53:14.311Z,94.26
2023-03-13T07:56:10.104Z,93.81
2023-03-13T07:58:56.680Z,93.45
2023-03-13T08:01:45.455Z,93.02
2023-03-13T08:04:31.946Z,91.97
2023-03-13T08:07:19.959Z,91.94
2023-03-13T08:10:06.552Z,91.06
2023-03-13T08:12:52.738Z,90.71
2023-03-13T08:15:39.347Z,90.53
2023-03-13T08:18:26.259Z,89.83
2023-03-13T08:21:19.526Z,89.26
2023-03-13T08:24:08.034Z,89.35
2023-03-13T08:26:54.623Z,89.14
2023-03-13T08:29:41.199Z,88.77
2023-03-13T08:32:27.581Z,89.02
2023-03-13T08:35:14.495Z,89.14
2023-03-13T08:38:27.615Z,89.43
2023-03-13T08:41:16.529Z,89.67
2023-03-13T08:44:05.788Z,89.46
2023-03-13T08:46:52.483Z,89.32
2023-03-13T08:49:39.148Z,88.69
2023-03-13T08:52:26.652Z,88.49
2023-03-13T08:55:13.285Z,87.99
2023-03-13T08:58:00.006Z,87.83
2023-03-13T09:00:46.280Z,87.47
2023-03-13T09:03:33.904Z,86.71
2023-03-13T09:06:20.720Z,86.68
2023-03-13T09:09:08.480Z,85.81
2023-03-13T09:11:54.969Z,83.90
2023-03-13T09:14:41.691Z,82.15
2023-03-13T09:17:28.543Z,81.40
2023-03-13T09:20:18.923Z,80.47
2023-03-13T09:23:05.323Z,80.58
2023-03-13T09:25:56.953Z,79.64
2023-03-13T09:28:44.666Z,79.36
2023-03-13T09:31:33.346Z,79.12
2023-03-13T09:34:20.528Z,78.80
2023-03-13T09:37:07.735Z,77.46
2023-03-13T09:39:54.213Z,76.61
2023-03-13T09:42:48.656Z,75.98
2023-03-13T09:45:40.206Z,75.48
2023-03-13T09:48:36.623Z,74.92
2023-03-13T09:51:30.904Z,74.65
2023-03-13T09:54:26.054Z,73.80
2023-03-13T09:57:18.638Z,73.91
2023-03-13T10:00:12.957Z,73.65
2023-03-13T10:03:09.098Z,73.80
2023-03-13T10:05:59.461Z,73.67
2023-03-13T10:08:46.101Z,73.55
2023-03-13T10:11:44.258Z,73.21
2023-03-13T10:14:39.394Z,73.16
2023-03-13T10:17:34.066Z,72.82
2023-03-13T10:20:33.895Z,72.60
2023-03-13T10:23:29.914Z,72.37
2023-03-13T10:26:28.197Z,72.43
2023-03-13T10:29:22.139Z,72.60
2023-03-13T10:32:14.025Z,72.18
2023-03-13T10:35:03.069Z,72.85
2023-03-13T10:37:49.500Z,72.72
2023-03-13T10:40:37.028Z,73.32
2023-03-13T10:43:26.357Z,73.87
2023-03-13T10:46:25.401Z,74.83
2023-03-13T10:49:23.947Z,74.89
2023-03-13T10:52:34.298Z,75.60
2023-03-13T10:55:26.133Z,75.67
2023-03-13T10:58:23.056Z,75.65
2023-03-13T11:01:21.450Z,76.30
2023-03-13T11:04:34.079Z,74.61
2023-03-13T11:07:22.208Z,74.61
2023-03-13T11:10:15.036Z,74.83
2023-03-13T11:13:01.972Z,74.05
2023-03-13T11:15:57.470Z,73.74
2023-03-13T11:18:55.119Z,73.52
2023-03-13T11:21:53.310Z,73.03
2023-03-13T11:24:45.848Z,72.51
2023-03-13T11:27:44.643Z,72.36
2023-03-13T11:30:31.720Z,71.20
2023-03-13T11:33:24.088Z,69.63
2023-03-13T11:36:32.825Z,67.69
2023-03-13T11:39:43.738Z,67.60
2023-03-13T11:42:52.787Z,66.58
2023-03-13T11:45:52.835Z,64.69
2023-03-13T11:48:54.429Z,63.83
2023-03-13T11:52:05.092Z,62.27
2023-03-13T11:54:59.740Z,60.06
2023-03-13T11:57:52.408Z,58.89
2023-03-13T12:00:57.625Z,60.26
2023-03-13T12:03:58.810Z,61.07
2023-03-13T12:06:54.362Z,62.01
2023-03-13T12:09:46.119Z,62.23
2023-03-13T12:12:44.508Z,61.81
2023-03-13T12:15:39.841Z,61.29
2023-03-13T12:18:38.464Z,61.71
2023-03-13T12:21:42.737Z,61.77
2023-03-13T12:25:00.337Z,61.08
2023-03-13T12:27:55.334Z,61.34
2023-03-13T12:31:05.393Z,61.55
2023-03-13T12:33:55.402Z,62.33
2023-03-13T12:36:51.385Z,62.84
2023-03-13T12:39:50.133Z,63.57
2023-03-13T12:43:02.070Z,63.54
2023-03-13T12:46:13.452Z,64.74
2023-03-13T12:49:12.414Z,65.97
2023-03-13T12:52:24.193Z,66.55
2023-03-13T12:55:36.426Z,67.61
2023-03-13T12:58:42.367Z,68.94
2023-03-13T13:01:36.866Z,70.25
2023-03-13T13:04:27.716Z,71.56
2023-03-13T13:07:29.771Z,71.91
2023-03-13T13:10:21.882Z,72.79
2023-03-13T13:13:28.971Z,72.97
2023-03-13T13:16:22.244Z,73.67
2023-03-13T13:19:26.466Z,74.88
2023-03-13T13:22:38.058Z,75.87
2023-03-13T13:25:55.125Z,77.32
2023-03-13T13:28:44.030Z,78.96
2023-03-13T13:31:57.956Z,79.82
2023-03-13T13:34:55.098Z,80.97
2023-03-13T13:37:43.133Z,81.69
2023-03-13T13:40:31.829Z,82.03
2023-03-13T13:43:24.863Z,82.08
2023-03-13T13:46:33.678Z,83.28
2023-03-13T13:49:21.894Z,84.45
2023-03-13T13:52:08.812Z,86.24
2023-03-13T13:54:57.769Z,87.43
2023-03-13T13:58:18.953Z,89.74
2023-03-13T14:01:11.398Z,91.21
2023-03-13T14:04:31.098Z,92.03
2023-03-13T14:07:24.882Z,94.04
2023-03-13T14:10:20.890Z,94.28
2023-03-13T14:13:16.886Z,95.77
2023-03-13T14:16:26.580Z,96.17
2023-03-13T14:19:55.139Z,96.30
2023-03-13T14:22:47.083Z,96.80
2023-03-13T14:25:48.991Z,97.10
2023-03-13T14:28:41.209Z,96.93
2023-03-13T14:31:51.982Z,96.90
2023-03-13T14:34:38.561Z,97.08
2023-03-13T14:37:42.876Z,96.43
2023-03-13T14:40:37.583Z,96.43
2023-03-13T14:43:30.979Z,96.62
2023-03-13T14:46:31.688Z,96.08
2023-03-13T14:52:26.453Z,96.30
2023-03-13T14:59:26.843Z,96.07
2023-03-13T15:02:18.998Z,96.43
2023-03-13T15:05:11.076Z,95.65
2023-03-13T15:08:00.487Z,95.32
2023-03-13T15:10:48.487Z,95.14
2023-03-13T15:13:37.224Z,95.77
2023-03-13T15:16:25.177Z,96.31
2023-03-13T15:19:12.027Z,97.37
2023-03-13T15:22:14.008Z,97.84
2023-03-13T15:25:08.568Z,98.36
2023-03-13T15:32:16.921Z,98.73
2023-03-13T15:35:31.001Z,97.52
2023-03-13T15:38:26.412Z,97.12
2023-03-13T15:41:12.891Z,97.08
2023-03-13T15:43:59.309Z,96.88
2023-03-13T15:46:46.409Z,95.19
2023-03-13T15:49:32.878Z,95.22
2023-03-13T15:52:22.781Z,95.70
2023-03-13T15:55:14.857Z,95.58
2023-03-13T15:58:01.607Z,95.96
2023-03-13T16:00:49.142Z,96.03
2023-03-13T16:03:35.991Z,96.10
2023-03-13T16:06:31.396Z,95.96
2023-03-13T16:09:18.213Z,96.26
2023-03-13T16:12:05.411Z,96.10
2023-03-13T16:14:52.011Z,95.76
2023-03-13T16:17:39.349Z,95.27
2023-03-13T16:20:31.465Z,95.14
2023-03-13T16:23:17.869Z,93.90
2023-03-13T16:26:12.518Z,93.86
2023-03-13T16:28:59.485Z,93.57
2023-03-13T16:31:46.741Z,93.35
2023-03-13T16:34:33.945Z,93.26
2023-03-13T16:37:21.061Z,92.74
2023-03-13T16:40:17.796Z,92.79
2023-03-13T16:43:06.122Z,92.49
2023-03-13T16:45:55.628Z,92.54
2023-03-13T16:48:43.306Z,92.24
2023-03-13T16:51:31.244Z,91.74
2023-03-13T16:54:19.367Z,90.71
2023-03-13T16:57:11.752Z,90.47
2023-03-13T16:59:58.345Z,90.23
2023-03-13T17:02:45.357Z,90.14
2023-03-13T17:05:32.547Z,90.13
2023-03-13T17:08:18.997Z,89.48
2023-03-13T17:11:06.220Z,89.37
2023-03-13T17:13:53.272Z,88.89
2023-03-13T17:16:44.118Z,89.07
2023-03-13T17:19:31.421Z,88.67
2023-03-13T17:22:18.645Z,87.81
2023-03-13T17:25:06.540Z,87.95
2023-03-13T17:27:54.065Z,87.52
2023-03-13T17:30:40.695Z,86.94
2023-03-13T17:38:06.528Z,86.75
2023-03-13T17:40:54.436Z,86.21
2023-03-13T17:43:41.845Z,85.83
2023-03-13T17:46:43.288Z,85.50
2023-03-13T17:49:31.196Z,85.12
2023-03-13T17:52:18.219Z,85.14
2023-03-13T17:55:06.205Z,84.93
2023-03-13T17:57:55.295Z,84.47
2023-03-13T18:00:45.402Z,84.28
2023-03-13T18:03:32.545Z,83.38
2023-03-13T18:06:24.476Z,83.04
2023-03-13T18:09:16.972Z,82.60
2023-03-13T18:12:04.047Z,82.17
2023-03-13T18:14:50.582Z,82.39
2023-03-13T18:17:37.128Z,81.58
2023-03-13T18:20:26.903Z,80.77
2023-03-13T18:23:13.458Z,80.74
2023-03-13T18:26:00.260Z,80.43
2023-03-13T18:28:46.624Z,80.11
2023-03-13T18:31:36.647Z,79.75
2023-03-13T18:34:24.857Z,78.95
2023-03-13T18:37:30.898Z,79.30
2023-03-13T18:40:23.787Z,78.76
2023-03-13T18:43:11.034Z,78.20
2023-03-13T18:46:00.879Z,78.14
2023-03-13T18:48:49.185Z,77.71
2023-03-13T18:51:36.495Z,77.29
2023-03-13T18:54:23.370Z,77.35
2023-03-13T18:57:18.640Z,77.89
2023-03-13T19:00:25.733Z,76.75
2023-03-13T19:03:12.283Z,76.44
2023-03-13T19:06:00.723Z,76.30
2023-03-13T19:08:49.558Z,76.26
2023-03-13T19:11:38.097Z,75.53
2023-03-13T19:14:27.277Z,75.61
2023-03-13T19:17:28.133Z,75.15
2023-03-13T19:20:17.876Z,74.80
2023-03-13T19:23:05.012Z,74.87
2023-03-13T19:25:52.498Z,74.50
2023-03-13T19:28:39.004Z,74.30
2023-03-13T19:31:25.930Z,74.42
2023-03-13T19:34:12.797Z,74.06
2023-03-13T19:36:59.611Z,73.73
2023-03-13T19:39:46.410Z,73.82
2023-03-13T19:42:35.834Z,73.70
2023-03-13T19:45:23.007Z,73.79
2023-03-13T19:48:10.719Z,73.48
2023-03-13T19:50:57.948Z,73.69
2023-03-13T19:53:45.507Z,73.32
2023-03-13T19:56:32.868Z,73.32
2023-03-13T19:59:31.443Z,73.16
2023-03-13T20:02:17.826Z,73.32
2023-03-13T20:05:07.474Z,73.12
2023-03-13T20:07:55.457Z,73.04
2023-03-13T20:10:42.163Z,73.16
2023-03-13T20:13:29.235Z,73.04
2023-03-13T20:16:16.068Z,72.93
2023-03-13T20:19:03.612Z,73.15
2023-03-13T20:21:50.206Z,72.82
2023-03-13T20:24:38.825Z,73.15
2023-03-13T20:27:25.424Z,72.96
2023-03-13T20:30:11.941Z,73.08
2023-03-13T20:33:15.853Z,73.22
2023-03-13T20:36:06.287Z,73.28
2023-03-13T20:38:53.226Z,73.17
2023-03-13T20:41:39.956Z,73.16
2023-03-13T20:44:26.595Z,73.27
2023-03-13T20:47:13.542Z,73.23
2023-03-13T20:49:59.855Z,72.85
2023-03-13T20:52:46.677Z,72.61
2023-03-13T20:55:33.400Z,72.69
2023-03-13T20:58:20.360Z,72.86
2023-03-13T21:01:07.817Z,72.53
2023-03-13T21:03:54.676Z,72.43
2023-03-13T21:07:06.654Z,72.24
2023-03-13T21:09:53.450Z,72.22
2023-03-13T21:12:41.932Z,72.16
2023-03-13T21:20:00.866Z,71.80
2023-03-13T21:22:50.966Z,71.92
2023-03-13T21:25:37.496Z,71.90
2023-03-13T21:28:24.283Z,71.92
2023-03-13T21:31:17.590Z,71.43
2023-03-13T21:34:04.760Z,71.40
2023-03-13T21:36:51.680Z,71.28
2023-03-13T21:39:42.106Z,71.52
2023-03-13T21:42:29.347Z,71.17
2023-03-13T21:45:22.114Z,71.36
2023-03-13T21:48:08.389Z,70.77
2023-03-13T21:50:54.889Z,70.90
2023-03-13T21:53:44.500Z,70.74
2023-03-13T21:56:31.487Z,70.64
2023-03-13T21:59:18.508Z,70.42
2023-03-13T22:02:05.733Z,70.68
2023-03-13T22:04:57.693Z,70.53
2023-03-13T22:07:45.428Z,70.53
2023-03-13T22:10:32.452Z,70.49
2023-03-13T22:13:18.961Z,70.66
2023-03-13T22:16:06.261Z,70.63
2023-03-13T22:18:53.610Z,70.58
2023-03-13T22:21:40.008Z,70.57
2023-03-13T22:24:26.725Z,70.45
2023-03-13T22:27:13.825Z,70.63
2023-03-13T22:30:01.314Z,70.67
2023-03-13T22:32:47.861Z,70.77
2023-03-13T22:35:35.275Z,71.10
2023-03-13T22:38:22.222Z,70.84
2023-03-13T22:41:11.789Z,70.33
2023-03-13T22:43:58.371Z,70.06
2023-03-13T22:46:44.752Z,70.20
2023-03-13T22:49:31.025Z,69.96
2023-03-13T22:52:17.481Z,69.82
2023-03-13T22:55:04.433Z,70.01
2023-03-13T22:57:51.009Z,70.03
2023-03-13T23:00:37.481Z,69.75
2023-03-13T23:03:24.429Z,69.76
2023-03-13T23:06:18.226Z,69.85
2023-03-13T23:09:05.415Z,69.96
2023-03-13T23:11:52.962Z,69.91
2023-03-13T23:14:39.674Z,70.19
2023-03-13T23:17:27.090Z,70.34
2023-03-13T23:20:13.549Z,70.53
2023-03-13T23:23:00.011Z,69.97
2023-03-13T23:25:46.428Z,69.58
2023-03-13T23:28:34.635Z,69.27
2023-03-13T23:31:22.394Z,69.32
2023-03-13T23:34:09.088Z,69.40
2023-03-13T23:36:57.970Z,68.90
2023-03-13T23:39:44.448Z,68.55
2023-03-13T23:42:31.556Z,68.05
2023-03-13T23:45:19.199Z,68.41
2023-03-13T23:48:05.516Z,69.03
2023-03-13T23:50:52.181Z,69.51
2023-03-13T23:53:40.603Z,70.63
2023-03-13T23:56:29.708Z,71.54
2023-03-13T23:59:16.442Z,72.37
